sensor_id;sensor_type;location;lat;lon;timestamp;temperature;humidity
9849;DHT22;4963;51.444;6.528;2023-04-03T00:00:06;3.70;99.90
9849;DHT22;4963;51.444;6.528;2023-04-03T00:02:33;3.70;99.90
9849;DHT22;4963;51.444;6.528;2023-04-03T00:05:00;3.70;99.90
9849;DHT22;4963;51.444;6.528;2023-04-03T00:07:27;3.60;99.90
9849;DHT22;4963;51.444;6.528;2023-04-03T00:09:54;3.60;99.90
9849;DHT22;4963;51.444;6.528;2023-04-03T00:12:22;3.60;99.90
9849;DHT22;4963;51.444;6.528;2023-04-03T00:14:49;3.60;99.90
9849;DHT22;4963;51.444;6.528;2023-04-03T00:17:15;3.60;99.90
9849;DHT22;4963;51.444;6.528;2023-04-03T00:19:42;3.60;99.90
9849;DHT22;4963;51.444;6.528;2023-04-03T00:22:09;3.60;99.90
9849;DHT22;4963;51.444;6.528;2023-04-03T00:24:36;3.60;99.90
9849;DHT22;4963;51.444;6.528;2023-04-03T00:27:03;3.60;99.90
9849;DHT22;4963;51.444;6.528;2023-04-03T00:29:31;3.50;99.90
9849;DHT22;4963;51.444;6.528;2023-04-03T00:31:57;3.50;99.90
9849;DHT22;4963;51.444;6.528;2023-04-03T00:34:24;3.40;99.90
9849;DHT22;4963;51.444;6.528;2023-04-03T00:36:51;3.30;99.90
9849;DHT22;4963;51.444;6.528;2023-04-03T00:39:18;3.30;99.90
9849;DHT22;4963;51.444;6.528;2023-04-03T00:41:44;3.20;99.90
9849;DHT22;4963;51.444;6.528;2023-04-03T00:44:22;3.10;99.90
9849;DHT22;4963;51.444;6.528;2023-04-03T00:46:50;2.90;99.90
9849;DHT22;4963;51.444;6.528;2023-04-03T00:49:17;2.80;99.90
9849;DHT22;4963;51.444;6.528;2023-04-03T00:51:44;2.90;99.90
9849;DHT22;4963;51.444;6.528;2023-04-03T00:54:11;2.90;99.90
9849;DHT22;4963;51.444;6.528;2023-04-03T00:56:38;3.00;99.90
9849;DHT22;4963;51.444;6.528;2023-04-03T00:59:07;3.00;99.90
9849;DHT22;4963;51.444;6.528;2023-04-03T01:01:35;3.00;99.90
9849;DHT22;4963;51.444;6.528;2023-04-03T01:04:05;3.10;99.90
9849;DHT22;4963;51.444;6.528;2023-04-03T01:06:36;3.10;99.90
9849;DHT22;4963;51.444;6.528;2023-04-03T01:09:04;3.10;99.90
9849;DHT22;4963;51.444;6.528;2023-04-03T01:11:31;3.20;99.90
9849;DHT22;4963;51.444;6.528;2023-04-03T01:13:57;3.30;99.90
9849;DHT22;4963;51.444;6.528;2023-04-03T01:16:25;3.00;99.90
9849;DHT22;4963;51.444;6.528;2023-04-03T01:18:53;2.80;99.90
9849;DHT22;4963;51.444;6.528;2023-04-03T01:22:00;2.80;99.90
9849;DHT22;4963;51.444;6.528;2023-04-03T01:24:34;2.70;99.90
9849;DHT22;4963;51.444;6.528;2023-04-03T01:27:03;2.70;99.90
9849;DHT22;4963;51.444;6.528;2023-04-03T01:29:31;2.90;99.90
9849;DHT22;4963;51.444;6.528;2023-04-03T01:32:00;2.80;99.90
9849;DHT22;4963;51.444;6.528;2023-04-03T01:34:28;2.90;99.90
9849;DHT22;4963;51.444;6.528;2023-04-03T01:36:56;3.10;99.90
9849;DHT22;4963;51.444;6.528;2023-04-03T01:39:23;2.90;99.90
9849;DHT22;4963;51.444;6.528;2023-04-03T01:41:50;2.80;99.90
9849;DHT22;4963;51.444;6.528;2023-04-03T01:44:17;2.80;99.90
9849;DHT22;4963;51.444;6.528;2023-04-03T01:46:44;2.80;99.90
9849;DHT22;4963;51.444;6.528;2023-04-03T01:49:12;2.80;99.90
9849;DHT22;4963;51.444;6.528;2023-04-03T01:51:39;2.80;99.90
9849;DHT22;4963;51.444;6.528;2023-04-03T01:54:05;2.80;99.90
9849;DHT22;4963;51.444;6.528;2023-04-03T01:56:32;2.80;99.90
9849;DHT22;4963;51.444;6.528;2023-04-03T01:58:59;2.80;99.90
9849;DHT22;4963;51.444;6.528;2023-04-03T02:01:26;2.70;99.90
9849;DHT22;4963;51.444;6.528;2023-04-03T02:03:53;2.80;99.90
9849;DHT22;4963;51.444;6.528;2023-04-03T02:06:21;2.80;99.90
9849;DHT22;4963;51.444;6.528;2023-04-03T02:08:48;3.10;99.90
9849;DHT22;4963;51.444;6.528;2023-04-03T02:11:15;2.80;99.90
9849;DHT22;4963;51.444;6.528;2023-04-03T02:13:41;2.80;99.90
9849;DHT22;4963;51.444;6.528;2023-04-03T02:16:10;2.80;99.90
9849;DHT22;4963;51.444;6.528;2023-04-03T02:18:38;2.80;99.90
9849;DHT22;4963;51.444;6.528;2023-04-03T02:21:05;2.90;99.90
9849;DHT22;4963;51.444;6.528;2023-04-03T02:23:34;2.90;99.90
9849;DHT22;4963;51.444;6.528;2023-04-03T02:26:09;2.80;99.90
9849;DHT22;4963;51.444;6.528;2023-04-03T02:28:36;2.70;99.90
9849;DHT22;4963;51.444;6.528;2023-04-03T02:31:04;2.70;99.90
9849;DHT22;4963;51.444;6.528;2023-04-03T02:33:31;2.70;99.90
9849;DHT22;4963;51.444;6.528;2023-04-03T02:35:59;2.80;99.90
9849;DHT22;4963;51.444;6.528;2023-04-03T02:38:26;2.90;99.90
9849;DHT22;4963;51.444;6.528;2023-04-03T02:40:59;2.90;99.90
9849;DHT22;4963;51.444;6.528;2023-04-03T02:43:25;2.80;99.90
9849;DHT22;4963;51.444;6.528;2023-04-03T02:45:52;2.80;99.90
9849;DHT22;4963;51.444;6.528;2023-04-03T02:48:19;2.90;99.90
9849;DHT22;4963;51.444;6.528;2023-04-03T02:50:46;2.90;99.90
9849;DHT22;4963;51.444;6.528;2023-04-03T02:53:12;2.90;99.90
9849;DHT22;4963;51.444;6.528;2023-04-03T02:55:40;2.80;99.90
9849;DHT22;4963;51.444;6.528;2023-04-03T02:58:08;2.90;99.90
9849;DHT22;4963;51.444;6.528;2023-04-03T03:00:35;3.20;99.90
9849;DHT22;4963;51.444;6.528;2023-04-03T03:03:02;2.90;99.90
9849;DHT22;4963;51.444;6.528;2023-04-03T03:05:29;2.90;99.90
9849;DHT22;4963;51.444;6.528;2023-04-03T03:07:56;2.90;99.90
9849;DHT22;4963;51.444;6.528;2023-04-03T03:10:23;2.80;99.90
9849;DHT22;4963;51.444;6.528;2023-04-03T03:12:49;2.80;99.90
9849;DHT22;4963;51.444;6.528;2023-04-03T03:15:18;2.80;99.90
9849;DHT22;4963;51.444;6.528;2023-04-03T03:17:45;2.80;99.90
9849;DHT22;4963;51.444;6.528;2023-04-03T03:20:12;2.80;99.90
9849;DHT22;4963;51.444;6.528;2023-04-03T03:22:40;3.00;99.90
9849;DHT22;4963;51.444;6.528;2023-04-03T03:25:08;2.90;99.90
9849;DHT22;4963;51.444;6.528;2023-04-03T03:27:35;2.80;99.90
9849;DHT22;4963;51.444;6.528;2023-04-03T03:30:02;2.80;99.90
9849;DHT22;4963;51.444;6.528;2023-04-03T03:32:30;2.80;99.90
9849;DHT22;4963;51.444;6.528;2023-04-03T03:34:57;2.80;99.90
9849;DHT22;4963;51.444;6.528;2023-04-03T03:37:23;2.70;99.90
9849;DHT22;4963;51.444;6.528;2023-04-03T03:39:50;2.70;99.90
9849;DHT22;4963;51.444;6.528;2023-04-03T03:42:17;2.70;99.90
9849;DHT22;4963;51.444;6.528;2023-04-03T03:44:44;2.60;99.90
9849;DHT22;4963;51.444;6.528;2023-04-03T03:47:11;2.60;99.90
9849;DHT22;4963;51.444;6.528;2023-04-03T03:49:39;2.60;99.90
9849;DHT22;4963;51.444;6.528;2023-04-03T03:52:06;2.60;99.90
9849;DHT22;4963;51.444;6.528;2023-04-03T03:54:36;2.60;99.90
9849;DHT22;4963;51.444;6.528;2023-04-03T03:57:02;2.50;99.90
9849;DHT22;4963;51.444;6.528;2023-04-03T03:59:29;2.60;99.90
9849;DHT22;4963;51.444;6.528;2023-04-03T04:01:56;2.60;99.90
9849;DHT22;4963;51.444;6.528;2023-04-03T04:04:23;2.60;99.90
9849;DHT22;4963;51.444;6.528;2023-04-03T04:06:51;2.50;99.90
9849;DHT22;4963;51.444;6.528;2023-04-03T04:09:18;2.50;99.90
9849;DHT22;4963;51.444;6.528;2023-04-03T04:11:45;2.50;99.90
9849;DHT22;4963;51.444;6.528;2023-04-03T04:14:11;2.60;99.90
9849;DHT22;4963;51.444;6.528;2023-04-03T04:16:39;2.40;99.90
9849;DHT22;4963;51.444;6.528;2023-04-03T04:19:06;2.40;99.90
9849;DHT22;4963;51.444;6.528;2023-04-03T04:21:32;2.40;99.90
9849;DHT22;4963;51.444;6.528;2023-04-03T04:24:00;2.40;99.90
9849;DHT22;4963;51.444;6.528;2023-04-03T04:26:27;2.50;99.90
9849;DHT22;4963;51.444;6.528;2023-04-03T04:28:54;2.40;99.90
9849;DHT22;4963;51.444;6.528;2023-04-03T04:31:21;2.50;99.90
9849;DHT22;4963;51.444;6.528;2023-04-03T04:33:47;2.50;99.90
9849;DHT22;4963;51.444;6.528;2023-04-03T04:36:14;2.50;99.90
9849;DHT22;4963;51.444;6.528;2023-04-03T04:38:41;2.40;99.90
9849;DHT22;4963;51.444;6.528;2023-04-03T04:41:10;2.30;99.90
9849;DHT22;4963;51.444;6.528;2023-04-03T04:43:36;2.30;99.90
9849;DHT22;4963;51.444;6.528;2023-04-03T04:46:05;2.20;99.90
9849;DHT22;4963;51.444;6.528;2023-04-03T04:48:32;2.10;99.90
9849;DHT22;4963;51.444;6.528;2023-04-03T04:50:58;2.20;99.90
9849;DHT22;4963;51.444;6.528;2023-04-03T04:53:25;2.20;99.90
9849;DHT22;4963;51.444;6.528;2023-04-03T04:55:52;2.10;99.90
9849;DHT22;4963;51.444;6.528;2023-04-03T04:58:21;2.10;99.90
9849;DHT22;4963;51.444;6.528;2023-04-03T05:00:47;2.10;99.90
9849;DHT22;4963;51.444;6.528;2023-04-03T05:03:15;2.00;99.90
9849;DHT22;4963;51.444;6.528;2023-04-03T05:05:41;2.00;99.90
9849;DHT22;4963;51.444;6.528;2023-04-03T05:08:08;2.00;99.90
9849;DHT22;4963;51.444;6.528;2023-04-03T05:10:35;2.00;99.90
9849;DHT22;4963;51.444;6.528;2023-04-03T05:13:02;2.00;99.90
9849;DHT22;4963;51.444;6.528;2023-04-03T05:15:30;2.00;99.90
9849;DHT22;4963;51.444;6.528;2023-04-03T05:17:57;2.00;99.90
9849;DHT22;4963;51.444;6.528;2023-04-03T05:20:23;1.90;99.90
9849;DHT22;4963;51.444;6.528;2023-04-03T05:22:50;1.90;99.90
9849;DHT22;4963;51.444;6.528;2023-04-03T05:25:17;1.80;99.90
9849;DHT22;4963;51.444;6.528;2023-04-03T05:27:44;1.80;99.90
9849;DHT22;4963;51.444;6.528;2023-04-03T05:30:11;1.90;99.90
9849;DHT22;4963;51.444;6.528;2023-04-03T05:32:40;1.90;99.90
9849;DHT22;4963;51.444;6.528;2023-04-03T05:35:08;1.90;99.90
9849;DHT22;4963;51.444;6.528;2023-04-03T05:37:35;2.00;99.90
9849;DHT22;4963;51.444;6.528;2023-04-03T05:40:03;1.80;99.90
9849;DHT22;4963;51.444;6.528;2023-04-03T05:42:30;1.90;99.90
9849;DHT22;4963;51.444;6.528;2023-04-03T05:44:56;1.90;99.90
9849;DHT22;4963;51.444;6.528;2023-04-03T05:47:23;1.90;99.90
9849;DHT22;4963;51.444;6.528;2023-04-03T05:49:52;1.90;99.90
9849;DHT22;4963;51.444;6.528;2023-04-03T05:52:23;2.00;99.90
9849;DHT22;4963;51.444;6.528;2023-04-03T05:54:51;1.90;99.90
9849;DHT22;4963;51.444;6.528;2023-04-03T05:57:18;2.00;99.90
9849;DHT22;4963;51.444;6.528;2023-04-03T05:59:46;2.10;99.90
9849;DHT22;4963;51.444;6.528;2023-04-03T06:02:15;2.00;99.90
9849;DHT22;4963;51.444;6.528;2023-04-03T06:04:42;2.10;99.90
9849;DHT22;4963;51.444;6.528;2023-04-03T06:07:12;2.10;99.90
9849;DHT22;4963;51.444;6.528;2023-04-03T06:09:41;2.30;99.90
9849;DHT22;4963;51.444;6.528;2023-04-03T06:12:08;2.20;99.90
9849;DHT22;4963;51.444;6.528;2023-04-03T06:14:35;2.30;99.90
9849;DHT22;4963;51.444;6.528;2023-04-03T06:17:01;2.30;99.90
9849;DHT22;4963;51.444;6.528;2023-04-03T06:19:28;2.40;99.90
9849;DHT22;4963;51.444;6.528;2023-04-03T06:21:55;2.30;99.90
9849;DHT22;4963;51.444;6.528;2023-04-03T06:24:24;2.30;99.90
9849;DHT22;4963;51.444;6.528;2023-04-03T06:26:51;2.40;99.90
9849;DHT22;4963;51.444;6.528;2023-04-03T06:29:18;2.50;99.90
9849;DHT22;4963;51.444;6.528;2023-04-03T06:31:46;2.50;99.90
9849;DHT22;4963;51.444;6.528;2023-04-03T06:34:13;2.60;99.90
9849;DHT22;4963;51.444;6.528;2023-04-03T06:36:41;2.60;99.90
9849;DHT22;4963;51.444;6.528;2023-04-03T06:39:08;2.80;99.90
9849;DHT22;4963;51.444;6.528;2023-04-03T06:41:37;2.80;99.90
9849;DHT22;4963;51.444;6.528;2023-04-03T06:44:04;3.00;99.90
9849;DHT22;4963;51.444;6.528;2023-04-03T06:46:31;3.00;99.90
9849;DHT22;4963;51.444;6.528;2023-04-03T06:48:58;3.20;99.90
9849;DHT22;4963;51.444;6.528;2023-04-03T06:51:26;3.30;99.90
9849;DHT22;4963;51.444;6.528;2023-04-03T06:53:56;3.30;99.90
9849;DHT22;4963;51.444;6.528;2023-04-03T06:56:23;3.40;99.90
9849;DHT22;4963;51.444;6.528;2023-04-03T06:58:52;3.40;99.90
9849;DHT22;4963;51.444;6.528;2023-04-03T07:01:20;3.50;99.90
9849;DHT22;4963;51.444;6.528;2023-04-03T07:03:48;3.50;99.90
9849;DHT22;4963;51.444;6.528;2023-04-03T07:06:16;3.50;99.90
9849;DHT22;4963;51.444;6.528;2023-04-03T07:08:44;4.10;99.90
9849;DHT22;4963;51.444;6.528;2023-04-03T07:11:12;3.60;99.90
9849;DHT22;4963;51.444;6.528;2023-04-03T07:13:39;3.70;99.90
9849;DHT22;4963;51.444;6.528;2023-04-03T07:16:08;3.60;99.90
9849;DHT22;4963;51.444;6.528;2023-04-03T07:18:35;3.70;99.90
9849;DHT22;4963;51.444;6.528;2023-04-03T07:21:03;3.80;99.90
9849;DHT22;4963;51.444;6.528;2023-04-03T07:23:30;3.90;99.90
9849;DHT22;4963;51.444;6.528;2023-04-03T07:25:57;3.80;99.90
9849;DHT22;4963;51.444;6.528;2023-04-03T07:28:24;3.90;99.90
9849;DHT22;4963;51.444;6.528;2023-04-03T07:30:53;3.90;99.90
9849;DHT22;4963;51.444;6.528;2023-04-03T07:33:22;4.00;99.90
9849;DHT22;4963;51.444;6.528;2023-04-03T07:35:49;4.00;99.90
9849;DHT22;4963;51.444;6.528;2023-04-03T07:38:16;4.10;99.90
9849;DHT22;4963;51.444;6.528;2023-04-03T07:40:46;4.20;99.90
9849;DHT22;4963;51.444;6.528;2023-04-03T07:43:13;4.20;99.90
9849;DHT22;4963;51.444;6.528;2023-04-03T07:45:40;4.30;99.90
9849;DHT22;4963;51.444;6.528;2023-04-03T07:48:07;4.30;99.90
9849;DHT22;4963;51.444;6.528;2023-04-03T07:50:35;4.40;99.90
9849;DHT22;4963;51.444;6.528;2023-04-03T07:53:02;4.40;99.90
9849;DHT22;4963;51.444;6.528;2023-04-03T07:55:31;4.40;99.90
9849;DHT22;4963;51.444;6.528;2023-04-03T07:57:58;4.50;99.90
9849;DHT22;4963;51.444;6.528;2023-04-03T08:00:25;4.60;99.90
9849;DHT22;4963;51.444;6.528;2023-04-03T08:02:52;5.10;99.90
9849;DHT22;4963;51.444;6.528;2023-04-03T08:05:19;4.90;99.90
9849;DHT22;4963;51.444;6.528;2023-04-03T08:07:48;4.90;99.90
9849;DHT22;4963;51.444;6.528;2023-04-03T08:10:15;4.90;99.90
9849;DHT22;4963;51.444;6.528;2023-04-03T08:12:42;4.90;99.90
9849;DHT22;4963;51.444;6.528;2023-04-03T08:15:09;5.00;99.90
9849;DHT22;4963;51.444;6.528;2023-04-03T08:17:36;5.10;99.90
9849;DHT22;4963;51.444;6.528;2023-04-03T08:20:04;5.30;99.90
9849;DHT22;4963;51.444;6.528;2023-04-03T08:22:32;5.40;99.90
9849;DHT22;4963;51.444;6.528;2023-04-03T08:25:01;5.50;99.90
9849;DHT22;4963;51.444;6.528;2023-04-03T08:27:28;5.80;99.90
9849;DHT22;4963;51.444;6.528;2023-04-03T08:29:54;6.00;99.90
9849;DHT22;4963;51.444;6.528;2023-04-03T08:32:22;6.00;99.90
9849;DHT22;4963;51.444;6.528;2023-04-03T08:34:50;6.10;99.90
9849;DHT22;4963;51.444;6.528;2023-04-03T08:37:17;6.10;99.90
9849;DHT22;4963;51.444;6.528;2023-04-03T08:39:45;6.30;99.90
9849;DHT22;4963;51.444;6.528;2023-04-03T08:42:29;6.50;99.90
9849;DHT22;4963;51.444;6.528;2023-04-03T08:45:01;6.50;99.70
9849;DHT22;4963;51.444;6.528;2023-04-03T08:47:38;6.80;98.90
9849;DHT22;4963;51.444;6.528;2023-04-03T08:50:10;6.90;98.30
9849;DHT22;4963;51.444;6.528;2023-04-03T08:52:40;6.90;96.00
9849;DHT22;4963;51.444;6.528;2023-04-03T08:55:19;6.90;96.80
9849;DHT22;4963;51.444;6.528;2023-04-03T08:57:49;7.00;96.30
9849;DHT22;4963;51.444;6.528;2023-04-03T09:00:19;7.00;96.30
9849;DHT22;4963;51.444;6.528;2023-04-03T09:02:48;7.00;95.30
9849;DHT22;4963;51.444;6.528;2023-04-03T09:05:18;6.90;95.70
9849;DHT22;4963;51.444;6.528;2023-04-03T09:07:49;7.00;94.80
9849;DHT22;4963;51.444;6.528;2023-04-03T09:10:24;6.90;94.00
9849;DHT22;4963;51.444;6.528;2023-04-03T09:12:59;7.00;93.80
9849;DHT22;4963;51.444;6.528;2023-04-03T09:15:28;7.00;92.80
9849;DHT22;4963;51.444;6.528;2023-04-03T09:18:02;7.00;91.90
9849;DHT22;4963;51.444;6.528;2023-04-03T09:20:39;6.90;92.40
9849;DHT22;4963;51.444;6.528;2023-04-03T09:23:17;6.90;91.60
9849;DHT22;4963;51.444;6.528;2023-04-03T09:25:45;6.90;91.60
9849;DHT22;4963;51.444;6.528;2023-04-03T09:28:13;6.80;90.70
9849;DHT22;4963;51.444;6.528;2023-04-03T09:30:40;7.00;89.10
9849;DHT22;4963;51.444;6.528;2023-04-03T09:33:08;6.80;88.30
9849;DHT22;4963;51.444;6.528;2023-04-03T09:35:36;6.80;88.80
9849;DHT22;4963;51.444;6.528;2023-04-03T09:38:16;6.90;90.40
9849;DHT22;4963;51.444;6.528;2023-04-03T09:40:44;6.90;88.80
9849;DHT22;4963;51.444;6.528;2023-04-03T09:43:24;6.90;88.10
9849;DHT22;4963;51.444;6.528;2023-04-03T09:45:52;7.00;87.20
9849;DHT22;4963;51.444;6.528;2023-04-03T09:48:20;7.10;89.80
9849;DHT22;4963;51.444;6.528;2023-04-03T09:50:59;7.30;87.80
9849;DHT22;4963;51.444;6.528;2023-04-03T09:53:35;7.20;85.70
9849;DHT22;4963;51.444;6.528;2023-04-03T09:56:05;7.10;86.90
9849;DHT22;4963;51.444;6.528;2023-04-03T09:58:48;7.20;86.50
9849;DHT22;4963;51.444;6.528;2023-04-03T10:01:28;7.10;90.00
9849;DHT22;4963;51.444;6.528;2023-04-03T10:04:13;7.20;90.00
9849;DHT22;4963;51.444;6.528;2023-04-03T10:06:42;7.10;88.30
9849;DHT22;4963;51.444;6.528;2023-04-03T10:09:20;7.10;83.00
9849;DHT22;4963;51.444;6.528;2023-04-03T10:12:00;7.80;84.50
9849;DHT22;4963;51.444;6.528;2023-04-03T10:14:29;7.40;87.00
9849;DHT22;4963;51.444;6.528;2023-04-03T10:17:02;7.00;86.00
9849;DHT22;4963;51.444;6.528;2023-04-03T10:19:35;7.50;89.10
9849;DHT22;4963;51.444;6.528;2023-04-03T10:22:09;7.50;84.30
9849;DHT22;4963;51.444;6.528;2023-04-03T10:24:47;7.50;81.70
9849;DHT22;4963;51.444;6.528;2023-04-03T10:27:18;7.50;76.90
9849;DHT22;4963;51.444;6.528;2023-04-03T10:29:53;7.40;77.80
9849;DHT22;4963;51.444;6.528;2023-04-03T10:32:31;7.30;76.80
9849;DHT22;4963;51.444;6.528;2023-04-03T10:35:08;7.30;78.40
9849;DHT22;4963;51.444;6.528;2023-04-03T10:37:47;7.50;77.00
9849;DHT22;4963;51.444;6.528;2023-04-03T10:40:24;7.50;74.60
9849;DHT22;4963;51.444;6.528;2023-04-03T10:43:03;7.60;76.80
9849;DHT22;4963;51.444;6.528;2023-04-03T10:45:50;7.60;78.10
9849;DHT22;4963;51.444;6.528;2023-04-03T10:48:26;7.60;78.20
9849;DHT22;4963;51.444;6.528;2023-04-03T10:51:00;7.70;76.50
9849;DHT22;4963;51.444;6.528;2023-04-03T10:53:32;7.70;79.00
9849;DHT22;4963;51.444;6.528;2023-04-03T10:56:05;7.90;80.30
9849;DHT22;4963;51.444;6.528;2023-04-03T10:58:37;7.90;77.20
9849;DHT22;4963;51.444;6.528;2023-04-03T11:01:09;7.90;77.30
9849;DHT22;4963;51.444;6.528;2023-04-03T11:03:39;8.40;78.70
9849;DHT22;4963;51.444;6.528;2023-04-03T11:06:09;8.10;75.60
9849;DHT22;4963;51.444;6.528;2023-04-03T11:08:39;8.20;77.00
9849;DHT22;4963;51.444;6.528;2023-04-03T11:11:12;8.30;76.60
9849;DHT22;4963;51.444;6.528;2023-04-03T11:13:43;8.40;78.50
9849;DHT22;4963;51.444;6.528;2023-04-03T11:16:18;8.40;76.70
9849;DHT22;4963;51.444;6.528;2023-04-03T11:18:49;8.50;74.80
9849;DHT22;4963;51.444;6.528;2023-04-03T11:21:21;8.40;73.40
9849;DHT22;4963;51.444;6.528;2023-04-03T11:23:51;8.30;74.40
9849;DHT22;4963;51.444;6.528;2023-04-03T11:26:21;8.40;77.90
9849;DHT22;4963;51.444;6.528;2023-04-03T11:28:53;8.70;75.90
9849;DHT22;4963;51.444;6.528;2023-04-03T11:31:33;8.20;75.30
9849;DHT22;4963;51.444;6.528;2023-04-03T11:34:12;8.20;76.50
9849;DHT22;4963;51.444;6.528;2023-04-03T11:36:44;8.10;76.10
9849;DHT22;4963;51.444;6.528;2023-04-03T11:39:19;8.00;77.60
9849;DHT22;4963;51.444;6.528;2023-04-03T11:41:47;7.90;78.40
9849;DHT22;4963;51.444;6.528;2023-04-03T11:44:32;8.10;79.20
9849;DHT22;4963;51.444;6.528;2023-04-03T11:47:02;8.10;77.00
9849;DHT22;4963;51.444;6.528;2023-04-03T11:49:57;8.10;82.80
9849;DHT22;4963;51.444;6.528;2023-04-03T11:52:56;8.30;86.50
9849;DHT22;4963;51.444;6.528;2023-04-03T11:55:52;8.40;88.10
9849;DHT22;4963;51.444;6.528;2023-04-03T11:58:22;8.40;81.60
9849;DHT22;4963;51.444;6.528;2023-04-03T12:06:58;8.30;87.50
9849;DHT22;4963;51.444;6.528;2023-04-03T12:09:35;8.20;86.70
9849;DHT22;4963;51.444;6.528;2023-04-03T12:12:34;8.00;85.20
9849;DHT22;4963;51.444;6.528;2023-04-03T12:15:24;8.10;89.00
9849;DHT22;4963;51.444;6.528;2023-04-03T12:17:52;8.20;83.80
9849;DHT22;4963;51.444;6.528;2023-04-03T12:23:32;8.30;87.10
9849;DHT22;4963;51.444;6.528;2023-04-03T12:26:03;8.10;88.00
9849;DHT22;4963;51.444;6.528;2023-04-03T12:28:37;8.20;89.60
9849;DHT22;4963;51.444;6.528;2023-04-03T12:31:08;8.20;90.30
9849;DHT22;4963;51.444;6.528;2023-04-03T12:33:56;8.30;91.60
9849;DHT22;4963;51.444;6.528;2023-04-03T12:36:30;8.40;89.10
9849;DHT22;4963;51.444;6.528;2023-04-03T12:39:17;8.60;89.20
9849;DHT22;4963;51.444;6.528;2023-04-03T12:41:53;8.40;88.60
9849;DHT22;4963;51.444;6.528;2023-04-03T12:44:43;8.30;85.10
9849;DHT22;4963;51.444;6.528;2023-04-03T12:47:23;8.30;88.40
9849;DHT22;4963;51.444;6.528;2023-04-03T12:49:50;8.30;81.40
9849;DHT22;4963;51.444;6.528;2023-04-03T12:52:25;8.40;83.20
9849;DHT22;4963;51.444;6.528;2023-04-03T12:54:56;8.00;83.00
9849;DHT22;4963;51.444;6.528;2023-04-03T12:57:25;8.50;84.00
9849;DHT22;4963;51.444;6.528;2023-04-03T12:59:53;8.50;82.20
9849;DHT22;4963;51.444;6.528;2023-04-03T13:02:23;8.60;84.10
9849;DHT22;4963;51.444;6.528;2023-04-03T13:04:50;8.90;81.30
9849;DHT22;4963;51.444;6.528;2023-04-03T13:07:22;8.70;83.30
9849;DHT22;4963;51.444;6.528;2023-04-03T13:10:01;8.60;79.70
9849;DHT22;4963;51.444;6.528;2023-04-03T13:12:28;8.60;80.40
9849;DHT22;4963;51.444;6.528;2023-04-03T13:14:56;8.60;81.00
9849;DHT22;4963;51.444;6.528;2023-04-03T13:17:25;8.70;77.70
9849;DHT22;4963;51.444;6.528;2023-04-03T13:19:53;8.50;78.20
9849;DHT22;4963;51.444;6.528;2023-04-03T13:22:26;8.40;77.60
9849;DHT22;4963;51.444;6.528;2023-04-03T13:24:56;8.30;77.40
9849;DHT22;4963;51.444;6.528;2023-04-03T13:27:26;8.30;77.90
9849;DHT22;4963;51.444;6.528;2023-04-03T13:29:56;8.40;79.60
9849;DHT22;4963;51.444;6.528;2023-04-03T13:32:26;8.50;80.00
9849;DHT22;4963;51.444;6.528;2023-04-03T13:34:53;8.60;81.10
9849;DHT22;4963;51.444;6.528;2023-04-03T13:37:23;8.70;80.90
9849;DHT22;4963;51.444;6.528;2023-04-03T13:40:00;8.70;77.10
9849;DHT22;4963;51.444;6.528;2023-04-03T13:42:30;8.70;77.70
9849;DHT22;4963;51.444;6.528;2023-04-03T13:45:11;8.80;76.90
9849;DHT22;4963;51.444;6.528;2023-04-03T13:47:39;8.80;77.90
9849;DHT22;4963;51.444;6.528;2023-04-03T13:50:15;8.80;76.70
9849;DHT22;4963;51.444;6.528;2023-04-03T13:52:45;8.80;75.70
9849;DHT22;4963;51.444;6.528;2023-04-03T13:55:19;8.70;76.70
9849;DHT22;4963;51.444;6.528;2023-04-03T13:57:57;8.60;79.10
9849;DHT22;4963;51.444;6.528;2023-04-03T14:00:32;8.70;79.70
9849;DHT22;4963;51.444;6.528;2023-04-03T14:03:00;8.70;80.20
9849;DHT22;4963;51.444;6.528;2023-04-03T14:05:26;8.80;81.90
9849;DHT22;4963;51.444;6.528;2023-04-03T14:07:54;8.80;80.70
9849;DHT22;4963;51.444;6.528;2023-04-03T14:10:22;8.80;79.50
9849;DHT22;4963;51.444;6.528;2023-04-03T14:12:49;9.00;80.50
9849;DHT22;4963;51.444;6.528;2023-04-03T14:15:22;9.00;79.80
9849;DHT22;4963;51.444;6.528;2023-04-03T14:17:50;8.90;79.90
9849;DHT22;4963;51.444;6.528;2023-04-03T14:20:19;8.80;78.80
9849;DHT22;4963;51.444;6.528;2023-04-03T14:22:47;8.70;78.70
9849;DHT22;4963;51.444;6.528;2023-04-03T14:25:14;8.60;78.30
9849;DHT22;4963;51.444;6.528;2023-04-03T14:27:44;8.70;79.80
9849;DHT22;4963;51.444;6.528;2023-04-03T14:30:14;8.70;80.00
9849;DHT22;4963;51.444;6.528;2023-04-03T14:32:44;8.90;79.60
9849;DHT22;4963;51.444;6.528;2023-04-03T14:35:12;9.00;81.00
9849;DHT22;4963;51.444;6.528;2023-04-03T14:37:40;9.00;79.10
9849;DHT22;4963;51.444;6.528;2023-04-03T14:40:08;9.00;79.10
9849;DHT22;4963;51.444;6.528;2023-04-03T14:42:37;8.90;80.10
9849;DHT22;4963;51.444;6.528;2023-04-03T14:45:05;9.00;79.70
9849;DHT22;4963;51.444;6.528;2023-04-03T14:47:33;9.00;79.50
9849;DHT22;4963;51.444;6.528;2023-04-03T14:50:07;8.90;78.60
9849;DHT22;4963;51.444;6.528;2023-04-03T14:52:35;8.90;81.90
9849;DHT22;4963;51.444;6.528;2023-04-03T14:55:04;8.80;81.80
9849;DHT22;4963;51.444;6.528;2023-04-03T14:57:32;8.80;81.50
9849;DHT22;4963;51.444;6.528;2023-04-03T14:59:59;8.80;83.70
9849;DHT22;4963;51.444;6.528;2023-04-03T15:02:28;8.80;84.10
9849;DHT22;4963;51.444;6.528;2023-04-03T15:04:56;8.90;83.20
9849;DHT22;4963;51.444;6.528;2023-04-03T15:07:27;8.90;81.70
9849;DHT22;4963;51.444;6.528;2023-04-03T15:09:54;8.80;81.60
9849;DHT22;4963;51.444;6.528;2023-04-03T15:12:22;8.70;81.80
9849;DHT22;4963;51.444;6.528;2023-04-03T15:14:49;8.70;83.50
9849;DHT22;4963;51.444;6.528;2023-04-03T15:17:18;8.80;83.70
9849;DHT22;4963;51.444;6.528;2023-04-03T15:19:46;8.70;83.10
9849;DHT22;4963;51.444;6.528;2023-04-03T15:22:14;8.80;84.70
9849;DHT22;4963;51.444;6.528;2023-04-03T15:24:42;8.80;84.90
9849;DHT22;4963;51.444;6.528;2023-04-03T15:27:10;8.80;85.30
9849;DHT22;4963;51.444;6.528;2023-04-03T15:29:37;8.80;84.20
9849;DHT22;4963;51.444;6.528;2023-04-03T15:32:05;8.70;84.50
9849;DHT22;4963;51.444;6.528;2023-04-03T15:34:32;8.60;85.40
9849;DHT22;4963;51.444;6.528;2023-04-03T15:36:58;8.60;84.10
9849;DHT22;4963;51.444;6.528;2023-04-03T15:39:25;8.50;82.90
9849;DHT22;4963;51.444;6.528;2023-04-03T15:41:54;8.50;83.10
9849;DHT22;4963;51.444;6.528;2023-04-03T15:44:22;8.40;83.30
9849;DHT22;4963;51.444;6.528;2023-04-03T15:46:49;8.40;83.90
9849;DHT22;4963;51.444;6.528;2023-04-03T15:49:16;8.40;84.50
9849;DHT22;4963;51.444;6.528;2023-04-03T15:51:43;8.40;84.40
9849;DHT22;4963;51.444;6.528;2023-04-03T15:54:10;8.40;84.50
9849;DHT22;4963;51.444;6.528;2023-04-03T15:56:37;8.40;82.20
9849;DHT22;4963;51.444;6.528;2023-04-03T15:59:05;8.40;84.20
9849;DHT22;4963;51.444;6.528;2023-04-03T16:01:32;8.40;83.70
9849;DHT22;4963;51.444;6.528;2023-04-03T16:04:00;8.40;84.50
9849;DHT22;4963;51.444;6.528;2023-04-03T16:06:27;8.40;84.00
9849;DHT22;4963;51.444;6.528;2023-04-03T16:08:55;8.30;85.10
9849;DHT22;4963;51.444;6.528;2023-04-03T16:11:23;8.50;86.00
9849;DHT22;4963;51.444;6.528;2023-04-03T16:13:50;8.40;86.20
9849;DHT22;4963;51.444;6.528;2023-04-03T16:16:19;8.30;86.50
9849;DHT22;4963;51.444;6.528;2023-04-03T16:18:46;8.30;85.70
9849;DHT22;4963;51.444;6.528;2023-04-03T16:21:14;8.30;86.10
9849;DHT22;4963;51.444;6.528;2023-04-03T16:23:42;8.20;88.00
9849;DHT22;4963;51.444;6.528;2023-04-03T16:26:09;8.20;87.40
9849;DHT22;4963;51.444;6.528;2023-04-03T16:28:36;8.20;86.80
9849;DHT22;4963;51.444;6.528;2023-04-03T16:31:03;8.20;87.40
9849;DHT22;4963;51.444;6.528;2023-04-03T16:33:33;8.20;86.30
9849;DHT22;4963;51.444;6.528;2023-04-03T16:36:00;8.10;86.40
9849;DHT22;4963;51.444;6.528;2023-04-03T16:38:27;8.10;87.70
9849;DHT22;4963;51.444;6.528;2023-04-03T16:40:53;8.00;88.30